createdAt,value
2019-06-20T00:02:16.193Z,66.70
2019-06-20T00:04:44.829Z,67.10
2019-06-20T00:07:13.515Z,67.10
2019-06-20T00:09:42.343Z,67.20
2019-06-20T00:12:11.095Z,67.00
2019-06-20T00:14:39.903Z,67.10
2019-06-20T00:17:08.727Z,67.00
2019-06-20T00:19:37.594Z,66.80
2019-06-20T00:22:06.349Z,66.90
2019-06-20T00:24:35.172Z,67.00
2019-06-20T00:27:03.990Z,67.50
2019-06-20T00:29:32.748Z,67.40
2019-06-20T00:32:01.629Z,67.00
2019-06-20T00:34:30.420Z,67.50
2019-06-20T00:36:59.240Z,67.60
2019-06-20T00:39:27.987Z,67.50
2019-06-20T00:41:56.809Z,67.10
2019-06-20T00:44:25.638Z,67.00
2019-06-20T00:46:54.390Z,67.50
2019-06-20T00:49:23.209Z,67.50
2019-06-20T00:51:52.028Z,67.80
2019-06-20T00:54:20.956Z,67.90
2019-06-20T00:56:49.775Z,67.20
2019-06-20T00:59:18.627Z,67.50
2019-06-20T01:01:47.608Z,67.40
2019-06-20T01:04:16.414Z,67.60
2019-06-20T01:06:45.239Z,67.20
2019-06-20T01:09:14.132Z,66.80
2019-06-20T01:11:43.079Z,67.00
2019-06-20T01:14:13.662Z,67.50
2019-06-20T01:16:42.429Z,67.10
2019-06-20T01:19:11.150Z,67.60
2019-06-20T01:21:39.971Z,67.50
2019-06-20T01:24:08.784Z,67.30
2019-06-20T01:26:37.615Z,67.50
2019-06-20T01:29:06.440Z,67.70
2019-06-20T01:31:35.339Z,68.20
2019-06-20T01:34:04.359Z,67.90
2019-06-20T01:36:33.176Z,68.10
2019-06-20T01:39:02.007Z,68.50
2019-06-20T01:41:30.837Z,68.50
2019-06-20T01:43:59.671Z,67.30
2019-06-20T01:46:28.582Z,68.50
2019-06-20T01:48:57.358Z,68.50
2019-06-20T01:51:26.097Z,68.80
2019-06-20T01:53:55.045Z,68.80
2019-06-20T01:56:23.776Z,69.20
2019-06-20T01:58:52.654Z,68.60
2019-06-20T02:01:21.541Z,68.60
2019-06-20T02:03:50.424Z,68.80
2019-06-20T02:06:19.179Z,69.00
2019-06-20T02:08:48.031Z,68.90
2019-06-20T02:11:16.856Z,69.00
2019-06-20T02:13:45.608Z,69.10
2019-06-20T02:16:14.638Z,69.60
2019-06-20T02:18:43.451Z,69.80
2019-06-20T02:21:12.310Z,69.20
2019-06-20T02:23:42.989Z,69.10
2019-06-20T02:26:11.725Z,69.10
2019-06-20T02:28:40.658Z,69.10
2019-06-20T02:31:09.489Z,69.10
2019-06-20T02:33:38.314Z,69.20
2019-06-20T02:36:08.263Z,69.20
2019-06-20T02:38:37.204Z,69.30
2019-06-20T02:41:06.102Z,69.00
2019-06-20T02:43:34.990Z,68.90
2019-06-20T02:46:04.120Z,68.60
2019-06-20T02:48:32.933Z,68.50
2019-06-20T02:51:02.662Z,68.30
2019-06-20T02:53:30.551Z,68.30
2019-06-20T02:56:00.714Z,67.90
2019-06-20T02:58:29.393Z,68.40
2019-06-20T03:00:58.924Z,67.80
2019-06-20T03:03:28.833Z,67.70
2019-06-20T03:05:58.159Z,67.30
2019-06-20T03:08:27.195Z,67.90
2019-06-20T03:10:55.995Z,67.90
2019-06-20T03:13:24.840Z,67.40
2019-06-20T03:15:53.659Z,67.70
2019-06-20T03:18:22.519Z,65.50
2019-06-20T03:20:51.346Z,66.70
2019-06-20T03:23:20.185Z,65.60
2019-06-20T03:25:49.001Z,65.60
2019-06-20T03:28:17.906Z,65.20
2019-06-20T03:30:46.688Z,64.90
2019-06-20T03:33:15.713Z,64.50
2019-06-20T03:35:44.651Z,63.80
2019-06-20T03:38:13.532Z,59.40
2019-06-20T03:40:42.385Z,56.00
2019-06-20T03:43:11.315Z,52.10
2019-06-20T03:45:40.203Z,51.50
2019-06-20T03:48:09.100Z,50.00
2019-06-20T03:50:37.990Z,48.10
2019-06-20T03:53:06.828Z,45.80
2019-06-20T03:55:35.664Z,45.50
2019-06-20T03:58:04.608Z,47.00
2019-06-20T04:00:35.115Z,48.30
2019-06-20T04:03:04.844Z,46.70
2019-06-20T04:05:33.684Z,45.90
2019-06-20T04:08:02.603Z,44.50
2019-06-20T04:10:31.460Z,43.80
2019-06-20T04:13:00.350Z,45.30
2019-06-20T04:15:29.273Z,46.40
2019-06-20T04:17:58.097Z,46.80
2019-06-20T04:20:27.018Z,46.30
2019-06-20T04:22:57.690Z,45.80
2019-06-20T04:25:26.436Z,45.70
2019-06-20T04:27:55.259Z,44.80
2019-06-20T04:30:24.098Z,43.70
2019-06-20T04:32:52.941Z,42.60
2019-06-20T04:35:21.692Z,41.80
2019-06-20T04:37:50.506Z,41.60
2019-06-20T04:40:19.476Z,44.30
2019-06-20T04:42:48.295Z,45.70
2019-06-20T04:45:34.197Z,45.10
2019-06-20T04:47:52.279Z,42.50
2019-06-20T04:50:21.105Z,41.10
2019-06-20T04:52:50.855Z,40.50
2019-06-20T04:55:19.692Z,39.70
2019-06-20T04:57:48.529Z,39.10
2019-06-20T05:00:17.560Z,38.30
2019-06-20T05:02:46.418Z,37.30
2019-06-20T05:05:15.649Z,37.30
2019-06-20T05:07:45.575Z,37.50
2019-06-20T05:10:14.118Z,36.60
2019-06-20T05:12:42.928Z,36.90
2019-06-20T05:15:12.945Z,37.30
2019-06-20T05:17:41.771Z,36.30
2019-06-20T05:20:11.054Z,36.20
2019-06-20T05:22:39.134Z,35.90
2019-06-20T05:25:07.995Z,35.10
2019-06-20T05:27:36.821Z,34.10
2019-06-20T05:30:11.605Z,34.40
2019-06-20T05:32:40.504Z,35.00
2019-06-20T05:35:10.693Z,34.50
2019-06-20T05:37:39.544Z,33.90
2019-06-20T05:40:08.332Z,34.40
2019-06-20T05:42:37.082Z,33.90
2019-06-20T05:45:07.825Z,33.50
2019-06-20T05:47:36.745Z,33.50
2019-06-20T05:50:09.762Z,32.50
2019-06-20T05:52:38.479Z,32.00
2019-06-20T05:55:07.795Z,32.80
2019-06-20T05:57:36.625Z,32.80
2019-06-20T06:00:09.409Z,32.80
2019-06-20T06:02:38.348Z,32.90
2019-06-20T06:05:06.840Z,32.20
2019-06-20T06:07:35.671Z,32.60
2019-06-20T06:10:06.760Z,31.90
2019-06-20T06:12:36.329Z,31.30
2019-06-20T06:15:07.369Z,32.20
2019-06-20T06:17:36.424Z,33.00
2019-06-20T06:20:07.344Z,36.00
2019-06-20T06:22:36.192Z,39.10
2019-06-20T06:25:06.598Z,41.10
2019-06-20T06:27:35.436Z,44.40
2019-06-20T06:30:07.200Z,45.20
2019-06-20T06:32:40.120Z,46.10
2019-06-20T06:35:08.263Z,47.20
2019-06-20T06:37:37.000Z,47.50
2019-06-20T06:40:08.401Z,47.80
2019-06-20T06:42:37.183Z,48.40
2019-06-20T06:45:08.768Z,48.70
2019-06-20T06:47:37.708Z,48.90
2019-06-20T06:50:08.024Z,48.80
2019-06-20T06:52:36.943Z,49.50
2019-06-20T06:55:06.663Z,49.10
2019-06-20T06:57:35.677Z,49.40
2019-06-20T07:00:12.620Z,49.50
2019-06-20T07:02:41.649Z,50.00
2019-06-20T07:05:11.727Z,49.40
2019-06-20T07:07:41.765Z,49.10
2019-06-20T07:10:10.931Z,49.00
2019-06-20T07:12:39.789Z,48.90
2019-06-20T07:15:10.121Z,49.20
2019-06-20T07:17:38.848Z,49.00
2019-06-20T07:20:08.503Z,48.50
2019-06-20T07:22:37.234Z,48.40
2019-06-20T07:25:09.631Z,48.40
2019-06-20T07:27:38.772Z,49.80
2019-06-20T07:30:10.002Z,49.60
2019-06-20T07:32:38.928Z,49.00
2019-06-20T07:35:08.968Z,49.20
2019-06-20T07:37:37.780Z,48.00
2019-06-20T07:40:07.297Z,48.10
2019-06-20T07:42:36.380Z,47.60
2019-06-20T07:45:09.719Z,46.00
2019-06-20T07:47:38.573Z,46.80
2019-06-20T07:50:09.385Z,44.90
2019-06-20T07:52:38.238Z,44.10
2019-06-20T07:55:09.079Z,41.90
2019-06-20T07:57:38.078Z,40.70
2019-06-20T08:00:10.415Z,38.80
2019-06-20T08:02:39.320Z,36.60
2019-06-20T08:05:08.461Z,33.50
2019-06-20T08:07:37.282Z,32.20
2019-06-20T08:10:09.579Z,30.00
2019-06-20T08:12:38.411Z,29.40
2019-06-20T08:15:14.936Z,28.40
2019-06-20T08:17:37.550Z,28.50
2019-06-20T08:20:07.907Z,29.50
2019-06-20T08:22:36.731Z,30.30
2019-06-20T08:25:05.727Z,30.20
2019-06-20T08:27:49.970Z,31.60
2019-06-20T08:30:21.642Z,33.40
2019-06-20T08:32:50.905Z,33.00
2019-06-20T08:35:21.804Z,31.60
2019-06-20T08:37:51.031Z,30.50
2019-06-20T08:40:20.677Z,29.60
2019-06-20T08:42:49.531Z,30.00
2019-06-20T08:45:17.692Z,30.20
2019-06-20T08:47:47.683Z,31.00
2019-06-20T08:50:16.825Z,31.00
2019-06-20T08:52:45.709Z,31.60
2019-06-20T08:55:15.658Z,31.50
2019-06-20T08:57:44.422Z,30.20
2019-06-20T09:00:13.017Z,30.00
2019-06-20T09:02:42.854Z,31.40
2019-06-20T09:05:12.272Z,32.20
2019-06-20T09:07:42.292Z,34.30
2019-06-20T09:10:12.309Z,35.40
2019-06-20T09:12:41.055Z,36.50
2019-06-20T09:15:10.375Z,37.00
2019-06-20T09:17:39.414Z,37.40
2019-06-20T09:20:09.931Z,38.20
2019-06-20T09:22:38.745Z,38.00
2019-06-20T09:25:08.860Z,38.60
2019-06-20T09:27:38.259Z,38.40
2019-06-20T09:30:08.374Z,39.10
2019-06-20T09:32:37.221Z,40.70
2019-06-20T09:35:07.741Z,40.10
2019-06-20T09:37:36.787Z,40.00
2019-06-20T09:40:06.608Z,39.00
2019-06-20T09:42:36.890Z,39.00
2019-06-20T09:45:10.463Z,38.30
2019-06-20T09:47:39.761Z,40.10
2019-06-20T09:50:10.927Z,38.60
2019-06-20T09:52:40.279Z,38.30
2019-06-20T09:55:10.870Z,38.30
2019-06-20T09:57:39.618Z,39.40
2019-06-20T10:00:13.831Z,39.80
2019-06-20T10:02:42.724Z,40.20
2019-06-20T10:05:11.939Z,40.10
2019-06-20T10:07:40.881Z,40.40
2019-06-20T10:10:12.002Z,40.50
2019-06-20T10:12:40.809Z,40.20
2019-06-20T10:15:24.231Z,40.10
2019-06-20T10:17:54.510Z,41.10
2019-06-20T10:20:24.409Z,40.40
2019-06-20T10:22:53.672Z,38.80
2019-06-20T10:25:21.944Z,39.10
2019-06-20T10:27:51.382Z,39.30
2019-06-20T10:30:24.643Z,39.40
2019-06-20T10:32:55.136Z,40.20
2019-06-20T10:35:23.932Z,40.40
2019-06-20T10:37:53.066Z,39.50
2019-06-20T10:40:21.487Z,38.90
2019-06-20T10:42:50.313Z,38.50
2019-06-20T10:45:21.525Z,37.90
2019-06-20T10:47:50.954Z,38.60
2019-06-20T10:50:20.689Z,38.40
2019-06-20T10:52:50.084Z,39.90
2019-06-20T10:55:19.411Z,41.10
2019-06-20T10:57:49.872Z,40.90
2019-06-20T11:00:30.317Z,39.60
2019-06-20T11:02:49.572Z,40.20
2019-06-20T11:05:19.385Z,40.60
2019-06-20T11:07:49.731Z,40.40
2019-06-20T11:10:19.519Z,41.50
2019-06-20T11:12:55.260Z,41.90
2019-06-20T11:15:20.718Z,42.20
2019-06-20T11:17:49.564Z,42.90
2019-06-20T11:20:18.711Z,44.20
2019-06-20T11:22:47.964Z,44.60
2019-06-20T11:25:19.352Z,44.30
2019-06-20T11:27:47.764Z,44.00
2019-06-20T11:30:25.538Z,44.10
2019-06-20T11:32:56.212Z,44.70
2019-06-20T11:35:25.957Z,44.50
2019-06-20T11:37:54.810Z,45.60
2019-06-20T11:40:23.672Z,45.40
2019-06-20T11:42:52.762Z,44.50
2019-06-20T11:45:22.179Z,43.50
2019-06-20T11:47:50.916Z,43.10
2019-06-20T11:50:20.334Z,43.60
2019-06-20T11:52:49.143Z,44.10
2019-06-20T11:55:18.755Z,43.90
2019-06-20T11:57:47.518Z,42.90
2019-06-20T12:00:19.186Z,42.90
2019-06-20T12:02:48.343Z,43.30
2019-06-20T12:05:17.563Z,43.50
2019-06-20T12:07:47.872Z,43.90
2019-06-20T12:10:17.674Z,43.70
2019-06-20T12:12:48.985Z,43.90
2019-06-20T12:15:18.093Z,44.10
2019-06-20T12:17:47.253Z,43.70
2019-06-20T12:20:16.705Z,43.20
2019-06-20T12:22:45.077Z,43.70
2019-06-20T12:25:15.912Z,43.90
2019-06-20T12:27:45.429Z,43.30
2019-06-20T12:30:19.215Z,44.00
2019-06-20T12:32:49.292Z,45.10
2019-06-20T12:35:20.450Z,44.10
2019-06-20T12:37:49.989Z,44.20
2019-06-20T12:40:20.617Z,44.40
2019-06-20T12:42:49.474Z,44.40
2019-06-20T12:45:18.872Z,44.50
2019-06-20T12:47:46.948Z,44.80
2019-06-20T12:50:16.378Z,45.60
2019-06-20T12:52:45.760Z,45.80
2019-06-20T12:55:15.068Z,45.70
2019-06-20T12:57:44.325Z,45.50
2019-06-20T13:00:14.508Z,45.40
2019-06-20T13:02:43.752Z,45.70
2019-06-20T13:05:13.397Z,45.80
2019-06-20T13:07:44.265Z,45.80
2019-06-20T13:10:13.513Z,44.90
2019-06-20T13:12:42.753Z,44.90
2019-06-20T13:15:13.481Z,45.20
2019-06-20T13:17:43.140Z,45.50
2019-06-20T13:20:12.416Z,45.80
2019-06-20T13:22:41.366Z,45.40
2019-06-20T13:25:11.964Z,46.10
2019-06-20T13:27:41.042Z,46.20
2019-06-20T13:30:11.154Z,46.30
2019-06-20T13:32:41.727Z,46.80
2019-06-20T13:35:12.145Z,47.00
2019-06-20T13:37:42.057Z,46.60
2019-06-20T13:40:12.319Z,46.50
2019-06-20T13:42:42.672Z,46.80
2019-06-20T13:45:23.187Z,47.20
2019-06-20T13:47:52.433Z,47.10
2019-06-20T13:50:20.721Z,46.00
2019-06-20T13:52:51.195Z,45.50
2019-06-20T13:55:19.949Z,45.10
2019-06-20T13:57:49.256Z,45.20
2019-06-20T14:00:20.442Z,45.10
2019-06-20T14:02:51.119Z,45.80
2019-06-20T14:05:20.380Z,45.20
2019-06-20T14:07:53.249Z,45.60
2019-06-20T14:10:20.079Z,45.50
2019-06-20T14:12:49.647Z,46.10
2019-06-20T14:15:18.932Z,46.60
2019-06-20T14:17:49.612Z,47.30
2019-06-20T14:20:17.775Z,47.30
2019-06-20T14:22:46.585Z,47.90
2019-06-20T14:25:15.544Z,48.40
2019-06-20T14:27:45.973Z,48.80
2019-06-20T14:30:15.248Z,49.20
2019-06-20T14:32:44.063Z,50.60
2019-06-20T14:35:13.217Z,54.00
2019-06-20T14:37:43.325Z,57.50
2019-06-20T14:40:12.829Z,60.00
2019-06-20T14:42:42.963Z,60.70
2019-06-20T14:45:12.291Z,60.60
2019-06-20T14:47:41.194Z,61.20
2019-06-20T14:50:10.726Z,58.00
2019-06-20T14:52:39.786Z,57.10
2019-06-20T14:55:09.243Z,57.00
2019-06-20T14:57:38.069Z,58.00
2019-06-20T15:00:08.200Z,55.40
2019-06-20T15:02:38.779Z,54.10
2019-06-20T15:05:15.329Z,55.10
2019-06-20T15:07:45.700Z,57.90
2019-06-20T15:10:15.743Z,59.10
2019-06-20T15:12:47.877Z,61.60
2019-06-20T15:15:15.587Z,61.90
2019-06-20T15:17:46.922Z,61.60
2019-06-20T15:20:15.181Z,61.30
2019-06-20T15:22:46.736Z,60.70
2019-06-20T15:25:14.874Z,59.50
2019-06-20T15:27:43.749Z,58.50
2019-06-20T15:30:13.925Z,57.60
2019-06-20T15:32:55.240Z,57.10
2019-06-20T15:35:13.209Z,57.20
2019-06-20T15:37:42.129Z,56.70
2019-06-20T15:40:11.074Z,56.80
2019-06-20T15:42:39.891Z,56.40
2019-06-20T15:45:10.216Z,56.10
2019-06-20T15:47:39.047Z,56.60
2019-06-20T15:50:08.977Z,56.20
2019-06-20T15:52:37.819Z,56.70
2019-06-20T15:55:08.599Z,57.00
2019-06-20T15:57:37.430Z,57.20
2019-06-20T16:00:08.289Z,56.50
2019-06-20T16:02:37.019Z,56.00
2019-06-20T16:05:07.541Z,55.50
2019-06-20T16:07:36.356Z,55.50
2019-06-20T16:10:09.736Z,55.60
2019-06-20T16:12:38.469Z,56.20
2019-06-20T16:15:11.386Z,55.50
2019-06-20T16:17:40.171Z,57.10
2019-06-20T16:20:10.103Z,55.70
2019-06-20T16:22:40.028Z,55.90
2019-06-20T16:25:09.234Z,56.10
2019-06-20T16:27:38.180Z,56.20
2019-06-20T16:30:08.388Z,56.50
2019-06-20T16:32:39.037Z,56.60
2019-06-20T16:35:08.801Z,56.60
2019-06-20T16:37:37.758Z,56.80
2019-06-20T16:40:08.785Z,56.90
2019-06-20T16:42:38.574Z,56.80
2019-06-20T16:45:09.324Z,56.00
2019-06-20T16:47:40.181Z,56.30
2019-06-20T16:50:09.591Z,56.80
2019-06-20T16:52:37.552Z,56.80
2019-06-20T16:55:07.581Z,56.80
2019-06-20T16:57:36.412Z,56.60
2019-06-20T17:00:10.550Z,56.50
2019-06-20T17:02:39.383Z,58.30
2019-06-20T17:05:27.487Z,56.90
2019-06-20T17:07:56.492Z,56.50
2019-06-20T17:10:25.564Z,59.10
2019-06-20T17:12:54.319Z,61.50
2019-06-20T17:15:23.343Z,63.40
2019-06-20T17:17:52.210Z,65.20
2019-06-20T17:20:22.318Z,72.30
2019-06-20T17:22:51.174Z,77.30
2019-06-20T17:25:20.033Z,86.40
2019-06-20T17:27:49.943Z,93.90
2019-06-20T17:30:20.381Z,97.80
2019-06-20T17:32:49.236Z,99.90
2019-06-20T17:35:18.363Z,99.90
2019-06-20T17:37:47.212Z,99.90
2019-06-20T17:40:17.157Z,99.70
2019-06-20T17:42:45.979Z,99.70
2019-06-20T17:45:15.504Z,99.50
2019-06-20T17:47:44.250Z,98.20
2019-06-20T17:50:13.806Z,99.30
2019-06-20T17:52:42.562Z,98.20
2019-06-20T17:55:13.663Z,98.20
2019-06-20T17:57:42.429Z,98.90
2019-06-20T18:00:16.452Z,99.30
2019-06-20T18:02:47.110Z,99.90
2019-06-20T18:05:16.475Z,99.80
2019-06-20T18:07:45.266Z,99.00
2019-06-20T18:10:15.290Z,98.80
2019-06-20T18:12:44.178Z,99.00
2019-06-20T18:15:13.673Z,99.90
2019-06-20T18:17:42.508Z,99.00
2019-06-20T18:20:11.691Z,99.90
2019-06-20T18:22:40.541Z,99.90
2019-06-20T18:25:11.796Z,99.90
2019-06-20T18:27:40.507Z,99.90
2019-06-20T18:30:10.827Z,99.90
2019-06-20T18:32:41.539Z,99.90
2019-06-20T18:35:10.241Z,99.90
2019-06-20T18:37:39.141Z,99.90
2019-06-20T18:40:14.141Z,99.90
2019-06-20T18:42:44.516Z,99.90
2019-06-20T18:45:13.461Z,99.90
2019-06-20T18:47:42.383Z,99.90
2019-06-20T18:50:12.458Z,99.90
2019-06-20T18:52:51.752Z,99.90
2019-06-20T18:55:13.265Z,99.90
2019-06-20T18:57:42.131Z,99.80
2019-06-20T19:00:13.866Z,99.80
2019-06-20T19:02:42.691Z,99.30
2019-06-20T19:05:12.040Z,99.90
2019-06-20T19:07:40.953Z,99.90
2019-06-20T19:10:10.622Z,99.90
2019-06-20T19:12:38.586Z,98.80
2019-06-20T19:15:29.392Z,99.10
2019-06-20T19:17:58.307Z,99.90
2019-06-20T19:20:31.387Z,99.90
2019-06-20T19:23:01.405Z,99.90
2019-06-20T19:25:32.863Z,99.90
2019-06-20T19:28:07.400Z,99.90
2019-06-20T19:30:50.644Z,99.90
2019-06-20T19:33:19.591Z,99.90
2019-06-20T19:35:49.672Z,99.90
2019-06-20T19:38:18.558Z,99.90
2019-06-20T19:40:49.305Z,99.90
2019-06-20T19:43:19.649Z,99.90
2019-06-20T19:46:11.617Z,99.90
2019-06-20T19:48:40.513Z,99.80
2019-06-20T19:51:09.335Z,99.30
2019-06-20T19:53:38.250Z,99.30
2019-06-20T19:56:15.779Z,99.20
2019-06-20T19:58:52.085Z,99.20
2019-06-20T20:01:22.098Z,99.30
2019-06-20T20:03:55.066Z,99.70
2019-06-20T20:06:24.617Z,99.70
2019-06-20T20:08:53.672Z,99.90
2019-06-20T20:11:28.875Z,99.90
2019-06-20T20:13:57.796Z,98.90
2019-06-20T20:16:26.695Z,98.20
2019-06-20T20:18:58.882Z,98.60
2019-06-20T20:21:29.876Z,99.20
2019-06-20T20:23:59.815Z,99.90
2019-06-20T20:26:30.480Z,99.90
2019-06-20T20:28:59.252Z,99.80
2019-06-20T20:31:28.076Z,99.90
2019-06-20T20:34:06.162Z,99.90
2019-06-20T20:36:36.824Z,99.90
2019-06-20T20:39:07.809Z,99.20
2019-06-20T20:41:38.450Z,99.30
2019-06-20T20:44:08.643Z,99.10
2019-06-20T20:46:37.509Z,99.20
2019-06-20T20:49:15.449Z,99.20
2019-06-20T20:51:45.419Z,98.90
2019-06-20T20:54:14.110Z,98.90
2019-06-20T20:56:42.936Z,99.00
2019-06-20T20:59:12.685Z,99.40
2019-06-20T21:01:43.170Z,98.40
2019-06-20T21:04:12.015Z,98.40
2019-06-20T21:06:40.848Z,98.90
2019-06-20T21:09:09.677Z,99.20
2019-06-20T21:11:38.443Z,99.60
2019-06-20T21:14:07.411Z,99.00
2019-06-20T21:16:36.153Z,99.20
2019-06-20T21:19:05.767Z,98.90
2019-06-20T21:21:34.663Z,99.60
2019-06-20T21:24:03.586Z,99.00
2019-06-20T21:26:45.261Z,98.00
2019-06-20T21:29:02.772Z,98.50
2019-06-20T21:31:31.550Z,98.80
2019-06-20T21:34:00.402Z,98.10
2019-06-20T21:36:29.229Z,98.40
2019-06-20T21:38:58.050Z,98.60
2019-06-20T21:41:26.911Z,98.40
2019-06-20T21:43:55.746Z,97.80
2019-06-20T21:46:24.626Z,99.00
2019-06-20T21:48:53.584Z,98.90
2019-06-20T21:51:22.372Z,99.10
2019-06-20T21:53:51.195Z,98.80
2019-06-20T21:56:20.077Z,98.30
2019-06-20T21:58:48.851Z,98.80
2019-06-20T22:01:18.586Z,99.20
2019-06-20T22:03:46.494Z,99.30
2019-06-20T22:06:23.799Z,99.10
2019-06-20T22:08:45.802Z,99.30
2019-06-20T22:11:14.629Z,99.40
2019-06-20T22:13:45.144Z,99.80
2019-06-20T22:16:14.041Z,99.70
2019-06-20T22:18:42.791Z,99.90
2019-06-20T22:21:11.712Z,99.90
2019-06-20T22:23:40.474Z,99.90
2019-06-20T22:26:09.345Z,99.90
2019-06-20T22:28:38.000Z,99.90
2019-06-20T22:31:06.833Z,99.90
2019-06-20T22:33:37.507Z,99.90
2019-06-20T22:36:07.347Z,99.90
2019-06-20T22:38:36.145Z,99.90
2019-06-20T22:41:05.007Z,99.90
2019-06-20T22:43:33.832Z,99.90
2019-06-20T22:46:02.794Z,99.90
2019-06-20T22:48:31.616Z,99.90
2019-06-20T22:51:00.438Z,99.90
2019-06-20T22:53:29.393Z,99.90
2019-06-20T22:55:58.299Z,99.90
2019-06-20T22:58:27.108Z,99.90
2019-06-20T23:00:55.931Z,99.90
2019-06-20T23:03:24.787Z,99.90
2019-06-20T23:05:53.507Z,99.90
2019-06-20T23:08:22.261Z,99.90
2019-06-20T23:10:51.009Z,99.90
2019-06-20T23:13:19.941Z,99.90
2019-06-20T23:15:48.732Z,99.90
2019-06-20T23:18:17.615Z,99.90
2019-06-20T23:21:03.559Z,99.90
2019-06-20T23:23:16.964Z,99.90
2019-06-20T23:25:47.337Z,99.90
2019-06-20T23:28:16.249Z,99.90
2019-06-20T23:30:45.058Z,99.90
2019-06-20T23:33:13.825Z,99.90
2019-06-20T23:35:42.664Z,99.90
2019-06-20T23:38:11.513Z,99.90
2019-06-20T23:40:40.321Z,99.90
2019-06-20T23:43:09.183Z,99.90
2019-06-20T23:45:37.998Z,99.90
2019-06-20T23:48:06.776Z,99.90
2019-06-20T23:50:35.544Z,99.90
2019-06-20T23:53:22.175Z,99.90
2019-06-20T23:55:51.050Z,99.90
2019-06-20T23:58:19.795Z,99.90
